Time;durP1;ratioP1;P1;durP2;ratioP2;P2;SDS_P1;SDS_P2;PMS_P1;PMS_P2;Temp;Humidity;BMP_temperature;BMP_pressure;BME280_temperature;BME280_humidity;BME280_pressure;Samples;Min_cycle;Max_cycle;Signal;HPM_P1;HPM_P2
2022/02/12 00:01:04;;;;;;;43.50;17.23;;;2.00;99.90;;;;;;5136620;27;20431;-85
2022/02/12 00:03:33;;;;;;;37.23;15.97;;;2.00;99.90;;;;;;5135946;27;20483;-86
2022/02/12 00:05:59;;;;;;;29.40;16.23;;;2.00;99.90;;;;;;5136139;27;20471;-82
2022/02/12 00:08:26;;;;;;;30.03;16.57;;;2.00;99.90;;;;;;5136017;27;20436;-79
2022/02/12 00:10:53;;;;;;;27.83;16.10;;;1.90;99.90;;;;;;5136181;27;20483;-82
2022/02/12 00:13:21;;;;;;;31.70;16.03;;;1.90;99.90;;;;;;5135940;27;20450;-80
2022/02/12 00:15:48;;;;;;;29.37;15.37;;;1.80;99.90;;;;;;5135828;27;20456;-82
2022/02/12 00:18:18;;;;;;;33.63;16.23;;;1.80;99.90;;;;;;5135836;27;20451;-86
2022/02/12 00:20:46;;;;;;;37.67;16.33;;;1.70;99.90;;;;;;5135873;27;20933;-83
2022/02/12 00:23:14;;;;;;;36.10;17.63;;;1.60;99.90;;;;;;5135756;27;20428;-85
2022/02/12 00:25:41;;;;;;;27.17;17.23;;;1.60;99.90;;;;;;5135926;27;20448;-83
2022/02/12 00:28:07;;;;;;;36.17;16.57;;;1.60;99.90;;;;;;5135643;27;20447;-82
2022/02/12 00:30:34;;;;;;;37.72;18.95;;;1.50;99.90;;;;;;5135602;27;20778;-84
2022/02/12 00:33:01;;;;;;;37.63;16.57;;;1.50;99.90;;;;;;5136128;27;20607;-85
2022/02/12 00:35:28;;;;;;;31.63;16.30;;;1.50;99.90;;;;;;5135719;27;20513;-84
2022/02/12 00:37:56;;;;;;;27.83;15.90;;;1.50;99.90;;;;;;5135818;27;20436;-83
2022/02/12 00:40:25;;;;;;;27.43;15.10;;;1.60;99.90;;;;;;5135845;27;20435;-86
2022/02/12 00:42:52;;;;;;;34.90;15.67;;;1.60;99.90;;;;;;5135408;27;20436;-84
2022/02/12 00:45:19;;;;;;;35.17;16.63;;;1.60;99.90;;;;;;5135171;27;20432;-82
2022/02/12 00:47:46;;;;;;;34.10;16.17;;;1.60;99.90;;;;;;5135840;27;20801;-82
2022/02/12 00:50:16;;;;;;;35.03;17.00;;;1.50;99.90;;;;;;5135723;27;20566;-80
2022/02/12 00:52:43;;;;;;;41.77;16.00;;;1.50;99.90;;;;;;5135540;27;20440;-81
2022/02/12 00:55:12;;;;;;;29.60;14.80;;;1.40;99.90;;;;;;5135443;27;20505;-83
2022/02/12 00:57:39;;;;;;;25.37;14.80;;;1.40;99.90;;;;;;5135077;27;20443;-86
2022/02/12 01:00:07;;;;;;;28.53;14.87;;;1.50;99.90;;;;;;5135370;27;20439;-86
2022/02/12 01:02:34;;;;;;;28.63;14.27;;;1.50;99.90;;;;;;5135068;27;20451;-82
2022/02/12 01:05:03;;;;;;;33.50;15.07;;;1.50;99.90;;;;;;5135300;27;20459;-85
2022/02/12 01:07:29;;;;;;;34.83;14.30;;;1.50;99.90;;;;;;5135254;27;20436;-82
2022/02/12 01:09:56;;;;;;;32.10;14.47;;;1.60;99.90;;;;;;5134681;27;20490;-83
2022/02/12 01:12:24;;;;;;;31.33;14.83;;;1.60;99.90;;;;;;5134607;27;20454;-78
2022/02/12 01:14:51;;;;;;;26.10;13.17;;;1.60;99.90;;;;;;5134707;27;20828;-81
2022/02/12 01:17:18;;;;;;;30.60;14.30;;;1.60;99.90;;;;;;5134295;27;20472;-84
2022/02/12 01:19:48;;;;;;;29.70;14.87;;;1.60;99.90;;;;;;5135305;27;20859;-85
2022/02/12 01:22:16;;;;;;;31.50;15.03;;;1.60;99.90;;;;;;5135369;27;20428;-84
2022/02/12 01:24:43;;;;;;;31.77;14.83;;;1.60;99.90;;;;;;5134718;27;20809;-88
2022/02/12 01:27:10;;;;;;;29.87;14.63;;;1.60;99.90;;;;;;5134761;27;20447;-86
2022/02/12 01:29:38;;;;;;;31.23;15.03;;;1.50;99.90;;;;;;5134410;27;20428;-86
2022/02/12 01:32:07;;;;;;;31.00;14.63;;;1.60;99.90;;;;;;5135129;27;20432;-85
2022/02/12 01:34:35;;;;;;;27.33;14.57;;;1.50;99.90;;;;;;5135309;27;20428;-83
2022/02/12 01:37:03;;;;;;;26.07;14.13;;;1.40;99.90;;;;;;5136152;27;20826;-81
2022/02/12 01:39:30;;;;;;;26.60;15.03;;;1.50;99.90;;;;;;5135076;27;20440;-82
2022/02/12 01:41:57;;;;;;;29.37;14.17;;;1.40;99.90;;;;;;5134494;27;20447;-82
2022/02/12 01:44:29;;;;;;;28.23;14.63;;;1.40;99.90;;;;;;5135143;27;20436;-81
2022/02/12 01:46:58;;;;;;;29.70;17.40;;;1.40;99.90;;;;;;5133779;27;20462;-82
2022/02/12 01:49:25;;;;;;;30.87;15.27;;;1.60;99.90;;;;;;5135245;27;20210;-80
2022/02/12 01:51:53;;;;;;;33.57;15.50;;;1.70;99.90;;;;;;5135449;27;20444;-81
2022/02/12 01:54:21;;;;;;;30.33;15.00;;;1.70;99.90;;;;;;5133752;27;20447;-81
2022/02/12 01:56:48;;;;;;;37.53;14.97;;;1.60;99.90;;;;;;5134175;27;20444;-83
2022/02/12 01:59:15;;;;;;;31.40;14.67;;;1.50;99.90;;;;;;5134662;27;20440;-83
2022/02/12 02:01:41;;;;;;;27.87;13.87;;;1.50;99.90;;;;;;5133697;27;20801;-82
2022/02/12 02:04:10;;;;;;;27.30;14.07;;;1.40;99.90;;;;;;5134405;27;20440;-82
2022/02/12 02:06:37;;;;;;;29.43;14.27;;;1.40;99.90;;;;;;5134284;27;20431;-83
2022/02/12 02:09:06;;;;;;;24.70;13.33;;;1.40;99.90;;;;;;5132796;27;20439;-83
2022/02/12 02:11:33;;;;;;;32.40;15.13;;;1.40;99.90;;;;;;5134111;27;20498;-84
2022/02/12 02:14:00;;;;;;;28.83;13.23;;;1.30;99.90;;;;;;5134222;28;20463;-83
2022/02/12 02:16:30;;;;;;;25.53;13.90;;;1.30;99.90;;;;;;5133795;28;20467;-83
2022/02/12 02:18:56;;;;;;;30.00;13.50;;;1.30;99.90;;;;;;5123784;27;20465;-84
2022/02/12 02:21:25;;;;;;;28.03;13.10;;;1.30;99.90;;;;;;5113589;28;20440;-87
2022/02/12 02:23:54;;;;;;;33.50;16.48;;;1.40;99.90;;;;;;5111852;28;20900;-81
2022/02/12 02:26:21;;;;;;;26.57;12.90;;;1.50;99.90;;;;;;5113304;28;20215;-80
2022/02/12 02:28:48;;;;;;;27.57;13.63;;;1.50;99.90;;;;;;5113654;28;20440;-82
2022/02/12 02:31:15;;;;;;;23.33;13.77;;;1.60;99.90;;;;;;5113650;28;20483;-82
2022/02/12 02:33:42;;;;;;;23.53;13.20;;;1.60;99.90;;;;;;5113212;28;20451;-83
2022/02/12 02:36:08;;;;;;;27.50;13.83;;;1.50;99.90;;;;;;5113463;28;20448;-84
2022/02/12 02:38:35;;;;;;;31.00;13.97;;;1.40;99.90;;;;;;5112783;28;20899;-83
2022/02/12 02:41:03;;;;;;;26.30;13.73;;;1.30;99.90;;;;;;5116071;28;20927;-82
2022/02/12 02:43:31;;;;;;;32.17;14.23;;;1.20;99.90;;;;;;5117361;28;20772;-84
2022/02/12 02:46:00;;;;;;;26.30;12.87;;;1.20;99.90;;;;;;5117736;28;20433;-84
2022/02/12 02:48:27;;;;;;;27.10;13.40;;;1.10;99.90;;;;;;5117256;28;20448;-85
2022/02/12 02:56:24;;;;;;;26.17;13.37;;;1.20;99.90;;;;;;5117445;28;20419;-82
2022/02/12 02:58:55;;;;;;;26.67;13.47;;;1.20;99.90;;;;;;5117062;28;20762;-85
2022/02/12 03:01:24;;;;;;;27.55;16.58;;;1.20;99.90;;;;;;5116166;28;20978;-81
2022/02/12 03:03:53;;;;;;;25.70;14.03;;;1.40;99.90;;;;;;5116801;28;20231;-80
2022/02/12 03:06:21;;;;;;;29.97;14.63;;;1.30;99.90;;;;;;5117001;28;20440;-83
2022/02/12 03:08:49;;;;;;;31.03;14.60;;;1.30;99.90;;;;;;5116824;28;20448;-82
2022/02/12 03:11:17;;;;;;;25.50;12.60;;;1.20;99.90;;;;;;5117065;28;20481;-83
2022/02/12 03:13:47;;;;;;;27.20;12.50;;;1.20;99.90;;;;;;5117187;28;20425;-84
2022/02/12 03:16:14;;;;;;;28.30;12.67;;;1.20;99.90;;;;;;5117048;28;20460;-83
2022/02/12 03:18:44;;;;;;;25.67;12.77;;;1.10;99.90;;;;;;5129023;27;20439;-82
2022/02/12 03:21:12;;;;;;;29.60;12.90;;;1.20;99.90;;;;;;5137510;27;20436;-82
2022/02/12 03:23:39;;;;;;;21.97;12.27;;;1.10;99.90;;;;;;5136826;27;20447;-86
2022/02/12 03:26:08;;;;;;;22.30;12.60;;;1.20;99.90;;;;;;5137301;27;20445;-82
2022/02/12 03:28:35;;;;;;;24.93;12.67;;;1.10;99.90;;;;;;5137212;27;20431;-83
2022/02/12 03:31:06;;;;;;;31.77;13.50;;;1.20;99.90;;;;;;5136954;27;20490;-83
2022/02/12 03:33:34;;;;;;;25.87;12.13;;;1.20;99.90;;;;;;5137089;27;20451;-85
2022/02/12 03:36:01;;;;;;;22.63;12.20;;;1.20;99.90;;;;;;5136659;27;20448;-87
2022/02/12 03:38:30;;;;;;;21.73;12.60;;;1.20;99.90;;;;;;5137220;27;20432;-83
2022/02/12 03:41:00;;;;;;;26.00;12.27;;;1.20;99.90;;;;;;5136705;27;20916;-83
2022/02/12 03:43:28;;;;;;;26.23;12.20;;;1.20;99.90;;;;;;5137054;27;20493;-82
2022/02/12 03:46:00;;;;;;;28.03;12.37;;;1.10;99.90;;;;;;5137149;27;20439;-82
2022/02/12 03:48:29;;;;;;;24.13;11.57;;;1.10;99.90;;;;;;5136447;27;20428;-82
2022/02/12 03:50:56;;;;;;;29.60;12.33;;;1.00;99.90;;;;;;5136580;27;20483;-82
2022/02/12 03:53:23;;;;;;;24.37;11.67;;;1.00;99.90;;;;;;5135865;27;20424;-82
2022/02/12 03:55:52;;;;;;;22.10;11.00;;;1.10;99.90;;;;;;5137008;27;20531;-85
2022/02/12 03:58:21;;;;;;;24.47;11.70;;;1.10;99.90;;;;;;5136533;27;20420;-83
2022/02/12 04:00:50;;;;;;;26.07;11.43;;;1.20;99.90;;;;;;5136704;27;20463;-83
2022/02/12 04:03:18;;;;;;;31.40;12.57;;;1.30;99.90;;;;;;5136207;27;20819;-82
2022/02/12 04:05:48;;;;;;;20.33;11.60;;;1.30;99.90;;;;;;5136623;27;20424;-86
2022/02/12 04:08:18;;;;;;;28.33;12.90;;;1.10;99.90;;;;;;5136484;27;20432;-86
2022/02/12 04:10:46;;;;;;;26.83;11.87;;;1.10;99.90;;;;;;5136655;27;20490;-87
2022/02/12 04:13:13;;;;;;;19.73;11.13;;;1.10;99.90;;;;;;5136242;27;20447;-82
2022/02/12 04:15:40;;;;;;;25.13;12.13;;;1.20;99.90;;;;;;5136217;27;20472;-81
2022/02/12 04:18:10;;;;;;;19.77;11.37;;;1.20;99.90;;;;;;5136150;27;21087;-86
2022/02/12 04:20:43;;;;;;;24.20;12.23;;;1.20;99.90;;;;;;5135070;27;20444;-83
2022/02/12 04:23:12;;;;;;;28.57;11.93;;;1.10;99.90;;;;;;5136214;27;20455;-86
2022/02/12 04:25:39;;;;;;;23.93;11.03;;;1.20;99.90;;;;;;5136061;27;20452;-86
2022/02/12 04:28:07;;;;;;;23.00;11.00;;;1.20;99.90;;;;;;5136004;27;20463;-86
2022/02/12 04:30:36;;;;;;;29.40;10.67;;;1.10;99.90;;;;;;5135941;27;20432;-85
2022/02/12 04:33:03;;;;;;;24.53;11.77;;;1.20;99.90;;;;;;5136152;27;20500;-84
2022/02/12 04:35:30;;;;;;;22.87;10.90;;;1.20;99.90;;;;;;5135583;27;20874;-80
2022/02/12 04:37:57;;;;;;;28.33;11.33;;;1.10;99.90;;;;;;5135315;27;20447;-80
2022/02/12 04:40:32;;;;;;;24.23;10.97;;;1.00;99.90;;;;;;5135993;27;20432;-83
2022/02/12 04:43:00;;;;;;;19.70;11.03;;;1.00;99.90;;;;;;5135993;27;20512;-85
2022/02/12 04:45:28;;;;;;;28.80;11.40;;;1.10;99.90;;;;;;5135538;27;20424;-82
2022/02/12 04:47:54;;;;;;;21.60;9.97;;;1.10;99.90;;;;;;5135938;27;20801;-85
2022/02/12 04:50:21;;;;;;;20.50;9.47;;;1.10;99.90;;;;;;5134991;27;20436;-84
2022/02/12 04:52:49;;;;;;;20.50;10.53;;;1.10;99.90;;;;;;5135268;27;20833;-82
2022/02/12 04:55:16;;;;;;;24.80;10.23;;;1.10;99.90;;;;;;5135504;27;20478;-82
2022/02/12 04:57:44;;;;;;;22.77;10.87;;;1.10;99.90;;;;;;5135246;27;20483;-83
2022/02/12 05:00:12;;;;;;;23.10;10.87;;;1.30;99.90;;;;;;5135552;27;20436;-83
2022/02/12 05:02:41;;;;;;;25.77;11.03;;;1.30;99.90;;;;;;5135135;27;20444;-85
2022/02/12 05:05:10;;;;;;;21.87;10.63;;;1.30;99.90;;;;;;5134193;27;20504;-86
2022/02/12 05:07:40;;;;;;;23.67;9.37;;;1.30;99.90;;;;;;5135015;27;20571;-84
2022/02/12 05:10:10;;;;;;;18.53;9.53;;;1.30;99.90;;;;;;5134906;27;20892;-85
2022/02/12 05:12:37;;;;;;;25.53;10.80;;;1.10;99.90;;;;;;5135196;27;20476;-82
2022/02/12 05:15:10;;;;;;;21.20;10.13;;;1.10;99.90;;;;;;5134985;27;20927;-83
2022/02/12 05:17:37;;;;;;;23.87;9.83;;;1.10;99.90;;;;;;5134819;27;20443;-84
2022/02/12 05:20:04;;;;;;;22.77;10.10;;;1.20;99.90;;;;;;5134969;27;20428;-81
2022/02/12 05:22:32;;;;;;;19.90;9.43;;;1.10;99.90;;;;;;5134924;27;20428;-82
2022/02/12 05:24:59;;;;;;;23.70;10.07;;;1.10;99.90;;;;;;5134965;27;20450;-82
2022/02/12 05:27:26;;;;;;;17.87;9.80;;;1.10;99.90;;;;;;5134723;27;20463;-82
2022/02/12 05:29:55;;;;;;;22.60;10.37;;;1.00;99.90;;;;;;5134774;27;20435;-83
2022/02/12 05:32:23;;;;;;;20.63;10.00;;;0.90;99.90;;;;;;5134453;27;20471;-84
2022/02/12 05:34:49;;;;;;;20.50;10.27;;;1.00;99.90;;;;;;5134293;27;20439;-85
2022/02/12 05:37:16;;;;;;;23.13;9.87;;;1.00;99.90;;;;;;5133694;27;20471;-81
2022/02/12 05:39:43;;;;;;;20.10;9.27;;;1.00;99.90;;;;;;5134447;27;20450;-85
2022/02/12 05:42:10;;;;;;;23.33;10.10;;;1.10;99.90;;;;;;5134677;27;20428;-82
2022/02/12 05:44:37;;;;;;;21.17;10.00;;;1.00;99.90;;;;;;5134510;27;20514;-87
2022/02/12 05:47:04;;;;;;;22.33;10.03;;;1.00;99.90;;;;;;5134178;27;20448;-85
2022/02/12 05:49:32;;;;;;;20.77;9.90;;;1.00;99.90;;;;;;5134430;27;20439;-87
2022/02/12 05:51:59;;;;;;;22.57;10.27;;;1.00;99.90;;;;;;5134607;27;20483;-83
2022/02/12 05:54:26;;;;;;;27.53;10.77;;;1.00;99.90;;;;;;5132005;27;20512;-85
2022/02/12 05:56:54;;;;;;;22.70;10.60;;;1.00;99.90;;;;;;5134444;27;20443;-86
2022/02/12 05:59:23;;;;;;;26.10;10.50;;;1.00;99.90;;;;;;5134668;27;20818;-83
2022/02/12 06:01:51;;;;;;;21.87;10.07;;;1.10;99.90;;;;;;5127190;27;20871;-81
2022/02/12 06:04:19;;;;;;;27.27;10.30;;;1.00;99.90;;;;;;5134079;27;20434;-83
2022/02/12 06:06:47;;;;;;;26.63;10.50;;;0.90;99.90;;;;;;5132557;27;20934;-83
2022/02/12 06:09:15;;;;;;;17.80;9.47;;;0.90;99.90;;;;;;5134806;27;20481;-83
2022/02/12 06:11:42;;;;;;;23.33;9.67;;;1.00;99.90;;;;;;5134354;27;20487;-83
2022/02/12 06:14:09;;;;;;;21.23;9.60;;;0.90;99.90;;;;;;5134569;27;20439;-83
2022/02/12 06:16:37;;;;;;;22.10;10.43;;;0.90;99.90;;;;;;5135995;28;20468;-83
2022/02/12 06:19:03;;;;;;;26.93;10.00;;;0.90;99.90;;;;;;5136231;28;20475;-82
2022/02/12 06:21:31;;;;;;;22.33;11.10;;;0.80;99.90;;;;;;5136777;28;20749;-86
2022/02/12 06:23:59;;;;;;;18.70;9.90;;;0.90;99.90;;;;;;5136869;28;20911;-83
2022/02/12 06:26:26;;;;;;;31.20;10.20;;;0.90;99.90;;;;;;5136144;28;20443;-85
2022/02/12 06:28:59;;;;;;;21.33;11.53;;;0.90;99.90;;;;;;5134448;28;20462;-83
2022/02/12 06:31:26;;;;;;;24.03;11.10;;;0.90;99.90;;;;;;5133831;28;20482;-87
2022/02/12 06:33:53;;;;;;;23.13;9.23;;;0.90;99.90;;;;;;5133974;28;20439;-83
2022/02/12 06:36:22;;;;;;;18.83;9.93;;;0.90;99.90;;;;;;5133991;27;20436;-83
2022/02/12 06:38:50;;;;;;;18.03;9.37;;;0.90;99.90;;;;;;5134192;28;20436;-84
2022/02/12 06:41:19;;;;;;;26.03;9.27;;;0.90;99.90;;;;;;5133750;28;20778;-82
2022/02/12 06:43:46;;;;;;;17.90;9.47;;;0.90;99.90;;;;;;5134178;28;20424;-84
2022/02/12 06:46:13;;;;;;;25.55;12.57;;;0.80;99.90;;;;;;5132492;28;20427;-83
2022/02/12 06:48:41;;;;;;;22.23;9.93;;;1.00;99.90;;;;;;5133895;28;20211;-82
2022/02/12 06:51:07;;;;;;;28.13;9.97;;;1.00;99.90;;;;;;5133775;28;20455;-82
2022/02/12 06:53:34;;;;;;;28.07;10.53;;;1.00;99.90;;;;;;5132781;28;20454;-84
2022/02/12 06:56:02;;;;;;;24.93;10.43;;;0.90;99.90;;;;;;5133280;28;20444;-85
2022/02/12 06:58:31;;;;;;;23.57;10.17;;;0.90;99.90;;;;;;5133718;28;20447;-83
2022/02/12 07:00:58;;;;;;;24.83;9.83;;;0.70;99.90;;;;;;5132779;28;20432;-82
2022/02/12 07:03:25;;;;;;;17.80;9.97;;;0.80;99.90;;;;;;5133049;28;20440;-84
2022/02/12 07:05:52;;;;;;;21.23;8.83;;;0.80;99.90;;;;;;5133200;28;20439;-86
2022/02/12 07:08:19;;;;;;;21.23;10.00;;;0.70;99.90;;;;;;5133485;28;20439;-84
2022/02/12 07:10:46;;;;;;;31.40;10.20;;;0.70;99.90;;;;;;5133440;28;20439;-84
2022/02/12 07:13:13;;;;;;;19.60;9.23;;;0.70;99.90;;;;;;5133041;28;20990;-86
2022/02/12 07:15:42;;;;;;;19.50;9.03;;;0.70;99.90;;;;;;5132694;28;20463;-87
2022/02/12 07:18:09;;;;;;;26.90;9.37;;;0.70;99.90;;;;;;5133706;28;20452;-87
2022/02/12 07:20:36;;;;;;;18.40;8.43;;;0.80;99.90;;;;;;5133317;28;20444;-76
2022/02/12 07:23:03;;;;;;;26.90;11.23;;;0.80;99.90;;;;;;5132294;28;20470;-76
2022/02/12 07:25:31;;;;;;;18.97;9.13;;;0.80;99.90;;;;;;5134041;28;20215;-84
2022/02/12 07:27:59;;;;;;;25.47;9.43;;;0.90;99.90;;;;;;5135865;27;20448;-84
2022/02/12 07:30:26;;;;;;;18.13;9.37;;;0.90;99.90;;;;;;5137427;27;20455;-84
2022/02/12 07:32:54;;;;;;;18.97;8.90;;;0.90;99.90;;;;;;5136765;27;20538;-85
2022/02/12 07:35:23;;;;;;;22.73;8.63;;;0.90;99.90;;;;;;5137341;27;20436;-84
2022/02/12 07:37:51;;;;;;;25.07;9.43;;;0.90;99.90;;;;;;5137091;27;20923;-84
2022/02/12 07:40:21;;;;;;;22.53;9.27;;;0.90;99.90;;;;;;5137149;27;20448;-84
2022/02/12 07:42:53;;;;;;;23.27;8.97;;;0.90;99.90;;;;;;5136516;27;20429;-82
2022/02/12 07:45:20;;;;;;;23.53;10.00;;;0.90;99.90;;;;;;5136667;27;20447;-86
2022/02/12 07:47:49;;;;;;;18.77;8.07;;;0.90;99.90;;;;;;5136499;27;20451;-85
2022/02/12 07:50:19;;;;;;;20.23;8.40;;;0.90;99.90;;;;;;5136531;27;20439;-86
2022/02/12 07:52:48;;;;;;;19.00;8.23;;;1.00;99.90;;;;;;5136821;27;20488;-85
2022/02/12 07:55:21;;;;;;;20.83;8.23;;;1.00;99.90;;;;;;5136982;27;20456;-83
2022/02/12 07:57:48;;;;;;;16.00;8.30;;;1.00;99.90;;;;;;5136198;27;20468;-85
2022/02/12 08:00:17;;;;;;;15.23;8.73;;;1.00;99.90;;;;;;5135984;27;20463;-80
2022/02/12 08:02:44;;;;;;;15.90;7.97;;;1.00;99.90;;;;;;5135393;27;20459;-83
2022/02/12 08:05:11;;;;;;;20.50;8.00;;;1.00;99.90;;;;;;5136018;27;20458;-81
2022/02/12 08:07:39;;;;;;;18.97;7.33;;;1.00;99.90;;;;;;5135770;27;20440;-80
2022/02/12 08:12:49;;;;;;;19.37;7.20;;;1.20;99.90;;;;;;5135634;27;20480;-82
2022/02/12 08:15:16;;;;;;;22.53;7.83;;;1.30;99.90;;;;;;5135012;27;20880;-80
2022/02/12 08:17:43;;;;;;;18.67;7.57;;;1.40;99.90;;;;;;5135864;27;20444;-82
2022/02/12 08:20:12;;;;;;;16.77;6.23;;;1.40;99.90;;;;;;5135091;27;20455;-83
2022/02/12 08:22:41;;;;;;;17.50;7.93;;;1.40;99.90;;;;;;5134664;27;20427;-79
2022/02/12 08:25:08;;;;;;;15.73;6.93;;;1.60;99.90;;;;;;5135075;27;20562;-83
2022/02/12 08:27:35;;;;;;;12.97;5.90;;;1.70;99.90;;;;;;5135260;27;20780;-82
2022/02/12 08:30:05;;;;;;;16.33;6.67;;;1.60;99.90;;;;;;5135733;27;20440;-82
2022/02/12 08:32:33;;;;;;;23.40;7.57;;;1.70;99.90;;;;;;5135783;27;20472;-78
2022/02/12 08:34:59;;;;;;;16.80;6.43;;;1.80;99.90;;;;;;5135639;27;20436;-82
2022/02/12 08:37:27;;;;;;;17.77;6.33;;;1.80;99.90;;;;;;5135294;27;20451;-81
2022/02/12 08:39:55;;;;;;;16.33;6.63;;;1.80;99.90;;;;;;5135648;27;20497;-83
2022/02/12 08:42:21;;;;;;;15.43;6.77;;;1.90;99.90;;;;;;5135935;27;20432;-79
2022/02/12 08:44:49;;;;;;;14.57;6.17;;;2.00;99.90;;;;;;5135705;27;20444;-84
2022/02/12 08:47:16;;;;;;;22.40;6.73;;;2.10;99.90;;;;;;5135561;27;20428;-84
2022/02/12 08:49:44;;;;;;;15.93;6.57;;;2.10;99.90;;;;;;5135473;27;20460;-80
2022/02/12 08:52:11;;;;;;;16.03;6.33;;;2.20;99.90;;;;;;5134846;27;20456;-84
2022/02/12 08:54:39;;;;;;;15.73;6.70;;;2.30;99.90;;;;;;5134720;27;20452;-83
2022/02/12 08:57:07;;;;;;;17.10;5.97;;;2.40;99.90;;;;;;5134867;27;20881;-82
2022/02/12 08:59:34;;;;;;;12.70;5.73;;;2.40;99.90;;;;;;5135553;27;20543;-81
2022/02/12 09:02:01;;;;;;;20.53;5.93;;;2.50;99.90;;;;;;5135168;27;20453;-84
2022/02/12 09:04:29;;;;;;;14.60;5.40;;;2.60;99.90;;;;;;5134776;27;20450;-82
2022/02/12 09:06:56;;;;;;;12.90;5.33;;;2.70;99.90;;;;;;5135358;27;20452;-84
2022/02/12 09:09:24;;;;;;;16.30;5.70;;;2.80;99.90;;;;;;5136195;27;20444;-86
2022/02/12 09:11:51;;;;;;;21.37;5.13;;;2.80;99.90;;;;;;5136443;27;20471;-85
2022/02/12 09:14:19;;;;;;;16.07;5.63;;;2.90;99.90;;;;;;5135753;27;20447;-84
2022/02/12 09:16:46;;;;;;;14.53;5.80;;;2.90;99.90;;;;;;5134657;27;20460;-83
2022/02/12 09:19:13;;;;;;;10.17;4.73;;;2.90;99.90;;;;;;5135457;27;20428;-83
2022/02/12 09:21:41;;;;;;;13.40;5.43;;;3.10;99.90;;;;;;5135469;27;20428;-84
2022/02/12 09:24:08;;;;;;;15.77;4.53;;;3.30;99.90;;;;;;5134492;27;20455;-82
2022/02/12 09:26:35;;;;;;;14.57;5.03;;;3.40;99.90;;;;;;5134960;27;20440;-86
2022/02/12 09:29:05;;;;;;;17.70;4.77;;;3.50;99.90;;;;;;5136243;27;20425;-89
2022/02/12 09:31:39;;;;;;;15.10;5.63;;;3.70;99.90;;;;;;5139379;27;20439;-89
2022/02/12 09:34:08;;;;;;;12.70;4.47;;;3.80;99.90;;;;;;5134529;27;20861;-81
2022/02/12 09:36:35;;;;;;;10.80;4.10;;;3.80;99.90;;;;;;5134304;27;20825;-83
2022/02/12 09:39:02;;;;;;;12.53;4.93;;;3.90;99.90;;;;;;5134056;27;20447;-85
2022/02/12 09:41:28;;;;;;;9.90;3.70;;;3.90;99.90;;;;;;5134982;27;20436;-84
2022/02/12 09:43:56;;;;;;;16.53;5.40;;;3.90;99.90;;;;;;5134505;27;20431;-85
2022/02/12 09:47:01;;;;;;;7.67;4.07;;;4.10;99.90;;;;;;5134403;27;20432;-84
2022/02/12 09:49:28;;;;;;;9.83;4.30;;;4.20;99.90;;;;;;5133378;27;20922;-85
2022/02/12 09:51:56;;;;;;;13.53;4.23;;;4.30;99.90;;;;;;5134825;27;20444;-83
2022/02/12 09:54:23;;;;;;;11.87;3.83;;;4.50;99.90;;;;;;5134367;27;20950;-83
2022/02/12 09:56:51;;;;;;;17.40;4.27;;;4.50;99.90;;;;;;5134728;27;20471;-84
2022/02/12 09:59:19;;;;;;;11.27;4.90;;;4.50;99.90;;;;;;5134716;27;20436;-83
2022/02/12 10:01:46;;;;;;;10.90;4.17;;;4.60;99.90;;;;;;5134935;27;20440;-82
2022/02/12 10:04:19;;;;;;;12.13;4.23;;;4.70;99.90;;;;;;5135355;27;20930;-85
2022/02/12 10:06:47;;;;;;;12.70;4.73;;;4.80;99.90;;;;;;5135618;27;20328;-84
2022/02/12 10:09:15;;;;;;;10.17;4.17;;;4.90;99.90;;;;;;5133749;27;20611;-83
2022/02/12 10:11:44;;;;;;;9.27;3.90;;;5.00;99.90;;;;;;5134973;27;20559;-81
2022/02/12 10:14:12;;;;;;;14.63;3.97;;;5.10;99.90;;;;;;5135156;28;20254;-84
2022/02/12 10:16:57;;;;;;;12.07;4.17;;;5.20;99.90;;;;;;5134972;28;20283;-84
2022/02/12 10:19:33;;;;;;;10.07;3.43;;;5.20;99.90;;;;;;5134874;28;20803;-83
2022/02/12 10:22:09;;;;;;;10.67;4.17;;;5.30;99.90;;;;;;5134382;28;20300;-84
2022/02/12 10:24:48;;;;;;;13.07;3.00;;;5.30;99.90;;;;;;5134412;28;20199;-84
2022/02/12 10:27:15;;;;;;;8.50;3.20;;;5.30;99.90;;;;;;5134329;28;20199;-85
2022/02/12 10:29:45;;;;;;;10.23;3.00;;;5.50;99.90;;;;;;5134821;28;20187;-87
2022/02/12 10:32:12;;;;;;;6.13;2.80;;;5.60;99.90;;;;;;5134245;28;20447;-85
2022/02/12 10:34:43;;;;;;;8.23;3.07;;;5.60;99.90;;;;;;5134232;28;20199;-82
2022/02/12 10:37:11;;;;;;;9.23;3.13;;;5.70;99.90;;;;;;5133367;28;20199;-85
2022/02/12 10:39:53;;;;;;;10.27;2.80;;;5.60;99.90;;;;;;5134677;28;20200;-86
2022/02/12 10:42:21;;;;;;;12.57;3.60;;;5.80;99.90;;;;;;5134161;28;20199;-87
2022/02/12 10:44:47;;;;;;;12.33;3.37;;;5.90;99.90;;;;;;5134351;28;20192;-85
2022/02/12 10:47:15;;;;;;;5.47;2.87;;;5.90;99.90;;;;;;5133909;28;20682;-85
2022/02/12 10:49:44;;;;;;;11.77;4.23;;;6.00;99.90;;;;;;5134348;28;20267;-84
2022/02/12 10:52:12;;;;;;;8.47;3.83;;;6.00;99.90;;;;;;5133942;28;20215;-80
2022/02/12 10:54:43;;;;;;;8.43;3.73;;;6.10;99.90;;;;;;5135048;28;20666;-81
2022/02/12 10:57:09;;;;;;;14.37;3.43;;;6.20;99.90;;;;;;5134768;28;20203;-82
2022/02/12 10:59:41;;;;;;;11.57;3.47;;;6.30;99.90;;;;;;5133909;28;20204;-82
2022/02/12 11:02:10;;;;;;;10.67;3.50;;;6.30;99.90;;;;;;5135708;27;20251;-80
2022/02/12 11:04:40;;;;;;;11.63;3.53;;;6.30;99.90;;;;;;5138372;27;20268;-81
2022/02/12 11:07:09;;;;;;;9.40;3.93;;;6.30;99.90;;;;;;5138783;27;20264;-82
2022/02/12 11:09:37;;;;;;;11.73;3.77;;;6.50;99.90;;;;;;5138356;27;20223;-83
2022/02/12 11:12:05;;;;;;;13.83;5.03;;;6.60;99.90;;;;;;5139317;27;20199;-81
2022/02/12 11:14:33;;;;;;;11.00;3.40;;;6.70;99.90;;;;;;5137798;27;20576;-84
2022/02/12 11:17:04;;;;;;;9.43;3.57;;;6.50;99.90;;;;;;5138431;27;20230;-83
2022/02/12 11:19:32;;;;;;;9.23;3.30;;;6.50;99.90;;;;;;5137495;27;20586;-81
2022/02/12 11:22:00;;;;;;;8.47;3.30;;;6.60;99.90;;;;;;5137148;27;20204;-80
2022/02/12 11:24:39;;;;;;;11.13;3.40;;;6.60;99.90;;;;;;5137725;27;20203;-82
2022/02/12 11:27:18;;;;;;;9.43;3.27;;;6.70;99.90;;;;;;5138137;27;20204;-79
2022/02/12 11:29:45;;;;;;;15.33;3.57;;;6.70;99.90;;;;;;5136770;27;20661;-81
2022/02/12 11:32:14;;;;;;;9.27;3.73;;;6.70;99.90;;;;;;5137094;27;20200;-82
2022/02/12 11:34:43;;;;;;;11.07;3.63;;;6.70;99.90;;;;;;5136283;27;20276;-80
2022/02/12 11:37:15;;;;;;;7.53;3.67;;;6.70;99.90;;;;;;5137063;27;20577;-78
2022/02/12 11:40:13;;;;;;;15.00;4.43;;;6.60;99.90;;;;;;5136978;27;20203;-80
2022/02/12 11:42:43;;;;;;;14.63;5.30;;;6.80;99.90;;;;;;5136332;27;20200;-81
2022/02/12 11:45:23;;;;;;;14.10;5.80;;;6.70;99.90;;;;;;5136817;27;20204;-84
2022/02/12 11:48:09;;;;;;;15.33;5.40;;;6.70;99.90;;;;;;5136866;27;20230;-80
2022/02/12 11:50:44;;;;;;;12.97;5.67;;;6.80;99.90;;;;;;5136384;27;20234;-80
2022/02/12 11:53:32;;;;;;;17.43;6.17;;;6.70;99.90;;;;;;5136741;27;20224;-78
2022/02/12 11:56:02;;;;;;;12.33;5.60;;;6.90;99.90;;;;;;5137842;27;20191;-81
2022/02/12 11:59:04;;;;;;;20.77;7.47;;;6.80;99.90;;;;;;5137449;27;20207;-81
2022/02/12 12:01:51;;;;;;;12.90;6.53;;;6.90;99.90;;;;;;5073965;28;20202;-83
2022/02/12 12:04:22;;;;;;;12.83;7.20;;;6.80;99.90;;;;;;5074738;28;20193;-82
2022/02/12 12:07:14;;;;;;;16.77;7.47;;;6.90;99.90;;;;;;5115966;27;20279;-82
2022/02/12 12:10:11;;;;;;;20.50;7.20;;;6.90;99.90;;;;;;5123202;27;20208;-78
2022/02/12 12:12:40;;;;;;;13.03;7.13;;;6.90;99.90;;;;;;5134690;27;20231;-81
2022/02/12 12:15:18;;;;;;;14.98;8.70;;;7.00;99.90;;;;;;5133218;27;20439;-78
2022/02/12 12:17:46;;;;;;;17.07;8.40;;;7.10;99.90;;;;;;5133291;27;20490;-79
2022/02/12 12:20:13;;;;;;;11.47;5.43;;;7.10;99.90;;;;;;5136569;27;20192;-81
2022/02/12 12:22:40;;;;;;;13.10;5.67;;;7.10;99.90;;;;;;5135466;27;20571;-83
2022/02/12 12:25:11;;;;;;;13.77;4.53;;;7.10;99.90;;;;;;5136042;27;20237;-80
2022/02/12 12:27:39;;;;;;;12.43;5.60;;;7.20;99.90;;;;;;5133453;27;20192;-81
2022/02/12 12:33:00;;;;;;;12.83;3.83;;;7.50;99.90;;;;;;5123362;27;20199;-86
2022/02/12 12:35:29;;;;;;;11.40;3.63;;;7.50;99.90;;;;;;5136874;27;20192;-85
2022/02/12 12:38:09;;;;;;;10.63;4.10;;;7.50;99.90;;;;;;5137471;27;20188;-84
2022/02/12 12:40:38;;;;;;;11.93;3.90;;;7.60;99.90;;;;;;5137458;27;20211;-87
2022/02/12 12:43:08;;;;;;;11.88;4.85;;;7.50;99.90;;;;;;5136492;27;20431;-88
2022/02/12 12:45:38;;;;;;;6.50;3.50;;;7.60;99.90;;;;;;5135648;27;20643;-78
2022/02/12 12:48:06;;;;;;;10.57;3.37;;;7.60;99.90;;;;;;5135298;27;20184;-78
2022/02/12 12:50:35;;;;;;;6.03;3.50;;;7.60;99.90;;;;;;5135965;27;20204;-80
2022/02/12 12:53:03;;;;;;;10.67;3.57;;;7.60;99.90;;;;;;5135545;27;20568;-78
2022/02/12 12:55:30;;;;;;;8.00;3.33;;;7.60;99.90;;;;;;5135417;27;20207;-78
2022/02/12 12:57:57;;;;;;;9.43;4.07;;;7.70;99.90;;;;;;5135864;27;20195;-80
2022/02/12 13:00:26;;;;;;;7.53;3.73;;;7.70;99.90;;;;;;5135950;27;20192;-79
2022/02/12 13:02:55;;;;;;;10.70;4.00;;;7.80;99.90;;;;;;5135251;27;20204;-79